createdAt,value
2022-10-18T00:02:41.582Z,6.70
2022-10-18T00:07:43.354Z,6.18
2022-10-18T00:17:46.861Z,6.63
2022-10-18T00:22:48.604Z,6.45
2022-10-18T00:27:50.375Z,7.35
2022-10-18T00:32:52.186Z,6.60
2022-10-18T00:37:53.995Z,6.45
2022-10-18T00:42:55.740Z,6.90
2022-10-18T00:48:02.407Z,5.95
2022-10-18T00:53:12.799Z,7.32
2022-10-18T00:58:17.166Z,7.30
2022-10-18T01:03:18.940Z,6.53
2022-10-18T01:08:58.298Z,6.28
2022-10-18T01:14:18.661Z,6.85
2022-10-18T01:19:58.050Z,7.70
2022-10-18T01:25:05.739Z,6.55
2022-10-18T01:30:36.949Z,6.40
2022-10-18T01:35:45.910Z,6.32
2022-10-18T01:40:49.069Z,7.20
2022-10-18T01:45:53.419Z,6.95
2022-10-18T01:50:55.251Z,7.65
2022-10-18T01:56:09.077Z,6.80
2022-10-18T02:01:28.681Z,7.50
2022-10-18T02:06:38.237Z,7.53
2022-10-18T02:11:41.508Z,8.10
2022-10-18T02:16:51.769Z,7.75
2022-10-18T02:21:54.905Z,8.73
2022-10-18T02:26:56.925Z,8.35
2022-10-18T02:32:16.962Z,7.50
2022-10-18T02:37:19.847Z,7.38
2022-10-18T02:42:22.603Z,7.40
2022-10-18T02:47:24.393Z,7.18
2022-10-18T02:52:26.178Z,7.40
2022-10-18T02:57:28.128Z,6.35
2022-10-18T03:02:30.193Z,6.55
2022-10-18T03:07:32.274Z,5.70
2022-10-18T03:12:34.237Z,6.10
2022-10-18T03:17:36.022Z,5.53
2022-10-18T03:22:37.855Z,5.45
2022-10-18T03:27:39.655Z,5.78
2022-10-18T03:32:41.581Z,5.78
2022-10-18T03:37:43.477Z,5.85
2022-10-18T03:42:45.319Z,5.53
2022-10-18T03:47:47.162Z,5.40
2022-10-18T03:52:48.938Z,5.90
2022-10-18T03:57:50.857Z,5.60
2022-10-18T04:02:55.075Z,5.78
2022-10-18T04:07:58.365Z,6.32
2022-10-18T04:13:00.136Z,5.38
2022-10-18T04:18:02.454Z,5.22
2022-10-18T04:23:04.294Z,4.63
2022-10-18T04:28:06.149Z,5.60
2022-10-18T04:33:07.989Z,4.63
2022-10-18T04:38:10.176Z,4.90
2022-10-18T04:43:11.994Z,4.78
2022-10-18T04:48:14.812Z,5.78
2022-10-18T04:53:17.757Z,6.20
2022-10-18T04:58:20.102Z,5.32
2022-10-18T05:03:22.097Z,5.18
2022-10-18T05:08:24.030Z,5.80
2022-10-18T05:13:26.260Z,6.78
2022-10-18T05:18:28.157Z,7.82
2022-10-18T05:23:29.952Z,6.22
2022-10-18T05:28:39.741Z,5.30
2022-10-18T05:33:42.148Z,4.65
2022-10-18T05:38:45.325Z,4.47
2022-10-18T05:43:47.160Z,6.05
2022-10-18T05:48:52.335Z,5.15
2022-10-18T05:53:54.770Z,5.10
2022-10-18T05:58:56.609Z,5.80
2022-10-18T06:03:58.408Z,5.88
2022-10-18T06:09:00.502Z,5.07
2022-10-18T06:14:02.442Z,5.57
2022-10-18T06:19:04.563Z,6.00
2022-10-18T06:24:06.650Z,5.60
2022-10-18T06:29:08.531Z,5.97
2022-10-18T06:34:10.441Z,6.70
2022-10-18T06:39:12.266Z,6.10
2022-10-18T06:44:14.727Z,6.35
2022-10-18T06:49:19.136Z,6.15
2022-10-18T06:54:21.378Z,5.65
2022-10-18T06:59:25.207Z,5.35
2022-10-18T07:04:30.522Z,6.68
2022-10-18T07:09:32.334Z,5.57
2022-10-18T07:14:34.140Z,11.77
2022-10-18T07:19:35.965Z,6.40
2022-10-18T07:24:37.813Z,9.32
2022-10-18T07:29:40.457Z,11.02
2022-10-18T07:34:42.266Z,12.43
2022-10-18T07:39:44.057Z,14.65
2022-10-18T07:44:46.058Z,14.70
2022-10-18T07:49:47.847Z,14.95
2022-10-18T07:59:56.854Z,14.30
2022-10-18T08:04:58.642Z,15.65
2022-10-18T08:10:00.454Z,14.73
2022-10-18T08:15:02.256Z,14.05
2022-10-18T08:20:12.322Z,13.88
2022-10-18T08:25:20.905Z,13.90
2022-10-18T08:30:23.536Z,15.13
2022-10-18T08:35:25.437Z,15.40
2022-10-18T08:40:28.315Z,15.35
2022-10-18T08:45:42.118Z,17.20
2022-10-18T08:50:45.941Z,18.67
2022-10-18T08:55:55.302Z,18.40
2022-10-18T09:01:15.613Z,16.52
2022-10-18T09:06:45.130Z,15.05
2022-10-18T09:11:58.046Z,16.35
2022-10-18T09:17:19.772Z,17.02
2022-10-18T09:22:37.594Z,15.43
2022-10-18T09:27:45.905Z,15.75
2022-10-18T09:33:24.796Z,19.38
2022-10-18T09:44:01.289Z,17.98
2022-10-18T09:49:16.382Z,15.95
2022-10-18T09:54:39.556Z,15.50
2022-10-18T09:59:49.626Z,16.27
2022-10-18T10:04:54.178Z,15.13
2022-10-18T10:10:16.793Z,16.77
2022-10-18T10:15:28.166Z,13.98
2022-10-18T10:20:44.618Z,14.77
2022-10-18T10:25:55.416Z,15.10
2022-10-18T10:31:17.617Z,14.23
2022-10-18T10:36:22.421Z,16.33
2022-10-18T10:41:24.826Z,13.85
2022-10-18T10:46:35.022Z,13.02
2022-10-18T10:51:38.950Z,14.77
2022-10-18T10:57:11.136Z,13.48
2022-10-18T11:02:29.396Z,11.10
2022-10-18T11:07:40.318Z,12.02
2022-10-18T11:13:04.219Z,11.80
2022-10-18T11:18:24.165Z,11.73
2022-10-18T11:23:32.389Z,11.68
2022-10-18T11:28:46.687Z,13.52
2022-10-18T11:34:26.185Z,13.25
2022-10-18T11:39:46.162Z,14.05
2022-10-18T11:45:18.471Z,13.02
2022-10-18T11:50:34.581Z,12.20
2022-10-18T11:56:07.193Z,15.00
2022-10-18T12:01:33.078Z,12.05
2022-10-18T12:06:38.435Z,14.95
2022-10-18T12:11:52.320Z,16.83
2022-10-18T12:17:35.762Z,13.20
2022-10-18T12:22:53.233Z,13.23
2022-10-18T12:33:27.261Z,10.80
2022-10-18T12:38:34.572Z,11.48
2022-10-18T12:43:36.929Z,11.68
2022-10-18T12:48:42.647Z,11.27
2022-10-18T12:53:47.511Z,13.65
2022-10-18T12:58:49.398Z,11.30
2022-10-18T13:03:56.215Z,13.20
2022-10-18T13:09:19.313Z,18.65
2022-10-18T13:14:37.151Z,12.45
2022-10-18T13:20:07.747Z,11.90
2022-10-18T13:25:31.972Z,12.80
2022-10-18T13:30:42.555Z,13.45
2022-10-18T13:35:51.234Z,15.82
2022-10-18T13:41:03.585Z,13.15
2022-10-18T13:46:05.544Z,16.45
2022-10-18T13:51:25.293Z,13.88
2022-10-18T13:56:45.858Z,14.43
2022-10-18T14:02:22.422Z,12.52
2022-10-18T14:07:28.518Z,16.10
2022-10-18T14:12:47.537Z,19.05
2022-10-18T14:17:51.522Z,16.33
2022-10-18T14:23:23.343Z,14.10
2022-10-18T14:28:36.265Z,13.05
2022-10-18T14:33:58.998Z,11.13
2022-10-18T14:39:02.543Z,8.60
2022-10-18T14:44:16.569Z,9.27
2022-10-18T14:49:20.084Z,8.25
2022-10-18T14:54:36.261Z,8.07
2022-10-18T14:59:45.048Z,8.48
2022-10-18T15:04:54.197Z,11.32
2022-10-18T15:09:59.179Z,10.38
2022-10-18T15:15:02.597Z,8.73
2022-10-18T15:20:25.038Z,8.20
2022-10-18T15:25:34.549Z,11.38
2022-10-18T15:30:36.293Z,9.25
2022-10-18T15:35:39.128Z,10.20
2022-10-18T15:40:41.617Z,8.95
2022-10-18T15:45:50.122Z,9.40
2022-10-18T15:51:04.771Z,10.18
2022-10-18T15:56:28.484Z,9.02
2022-10-18T16:01:38.335Z,10.40
2022-10-18T16:06:40.242Z,11.95
2022-10-18T16:11:42.024Z,10.65
2022-10-18T16:16:44.312Z,9.60
2022-10-18T16:21:46.090Z,8.23
2022-10-18T16:26:48.838Z,9.50
2022-10-18T16:31:51.596Z,8.05
2022-10-18T16:36:54.032Z,6.28
2022-10-18T16:41:55.906Z,6.65
2022-10-18T16:46:57.699Z,7.28
2022-10-18T16:51:59.666Z,7.57
2022-10-18T16:57:01.501Z,6.70
2022-10-18T17:02:08.806Z,7.30
2022-10-18T17:07:23.215Z,7.60
2022-10-18T17:12:25.049Z,7.15
2022-10-18T17:17:26.875Z,7.85
2022-10-18T17:22:28.656Z,7.40
2022-10-18T17:27:30.592Z,8.05
2022-10-18T17:32:32.788Z,8.07
2022-10-18T17:37:35.027Z,9.02
2022-10-18T17:42:37.136Z,9.07
2022-10-18T17:47:38.942Z,8.25
2022-10-18T17:52:45.443Z,8.20
2022-10-18T17:57:47.304Z,8.80
2022-10-18T18:02:49.117Z,9.25
2022-10-18T18:07:51.017Z,7.40
2022-10-18T18:12:52.794Z,8.10
2022-10-18T18:17:58.204Z,7.97
2022-10-18T18:23:00.452Z,7.72
2022-10-18T18:28:06.632Z,6.78
2022-10-18T18:33:09.237Z,7.82
2022-10-18T18:38:11.030Z,5.95
2022-10-18T18:43:23.348Z,6.88
2022-10-18T18:48:27.012Z,7.53
2022-10-18T18:53:29.749Z,6.20
2022-10-18T18:58:32.615Z,5.78
2022-10-18T19:03:34.497Z,6.38
2022-10-18T19:08:37.917Z,6.32
2022-10-18T19:13:39.730Z,5.72
2022-10-18T19:18:41.519Z,5.13
2022-10-18T19:23:43.346Z,5.07
2022-10-18T19:28:45.234Z,5.40
2022-10-18T19:33:55.666Z,6.55
2022-10-18T19:39:01.220Z,6.40
2022-10-18T19:44:03.492Z,5.47
2022-10-18T19:49:05.517Z,4.95
2022-10-18T19:54:07.582Z,5.47
2022-10-18T19:59:10.793Z,7.38
2022-10-18T20:04:13.506Z,5.38
2022-10-18T20:09:19.384Z,5.60
2022-10-18T20:14:22.918Z,4.83
2022-10-18T20:19:24.737Z,5.47
2022-10-18T20:24:26.758Z,5.65
2022-10-18T20:29:30.093Z,5.63
2022-10-18T20:34:32.029Z,5.00
2022-10-18T20:39:35.155Z,5.50
2022-10-18T20:44:40.717Z,6.00
2022-10-18T20:49:42.485Z,5.18
2022-10-18T20:54:44.289Z,4.85
2022-10-18T20:59:46.069Z,5.50
2022-10-18T21:04:48.026Z,5.63
2022-10-18T21:09:50.869Z,4.60
2022-10-18T21:14:52.639Z,4.68
2022-10-18T21:19:54.410Z,4.88
2022-10-18T21:24:56.169Z,4.97
2022-10-18T21:29:57.942Z,5.20
2022-10-18T21:35:00.063Z,4.93
2022-10-18T21:40:01.982Z,5.07
2022-10-18T21:45:04.163Z,5.53
2022-10-18T21:50:06.350Z,4.75
2022-10-18T21:55:08.534Z,6.35
2022-10-18T22:00:11.258Z,5.00
2022-10-18T22:05:12.994Z,5.40
2022-10-18T22:10:15.049Z,5.15
2022-10-18T22:15:16.971Z,4.80
2022-10-18T22:20:18.834Z,4.50
2022-10-18T22:25:20.624Z,4.88
2022-10-18T22:30:22.410Z,4.45
2022-10-18T22:35:24.198Z,5.03
2022-10-18T22:40:26.071Z,4.53
2022-10-18T22:45:27.846Z,4.68
2022-10-18T22:50:29.614Z,4.63
2022-10-18T22:55:31.398Z,3.92
2022-10-18T23:00:33.340Z,3.90
2022-10-18T23:05:39.572Z,4.28
2022-10-18T23:10:42.621Z,4.50
2022-10-18T23:15:44.386Z,3.70
2022-10-18T23:20:46.257Z,4.07
2022-10-18T23:25:51.647Z,3.92
2022-10-18T23:30:53.828Z,4.00
2022-10-18T23:35:55.588Z,3.78
2022-10-18T23:40:57.721Z,3.95
2022-10-18T23:45:59.818Z,3.78
2022-10-18T23:51:02.548Z,3.50
2022-10-18T23:56:07.085Z,4.03
